Time;durP1;ratioP1;P1;durP2;ratioP2;P2;SDS_P1;SDS_P2;PMS_P1;PMS_P2;Temp;Humidity;BMP_temperature;BMP_pressure;BME280_temperature;BME280_humidity;BME280_pressure;Samples;Min_cycle;Max_cycle;Signal;HPM_P1;HPM_P2
2024/03/13 00:02:10;;;;;;;5.18;3.20;;;10.10;93.40;;;;;;5063249;28;20022;-65
2024/03/13 00:04:44;;;;;;;4.85;2.90;;;10.00;93.30;;;;;;5068072;28;20025;-64
2024/03/13 00:07:11;;;;;;;4.25;2.97;;;10.10;93.30;;;;;;5066054;28;20033;-64
2024/03/13 00:09:45;;;;;;;5.00;2.88;;;10.20;93.30;;;;;;5068007;28;20028;-65
2024/03/13 00:12:11;;;;;;;4.15;2.72;;;10.20;93.30;;;;;;5065065;28;20086;-64
2024/03/13 00:14:37;;;;;;;7.40;4.50;;;10.20;93.30;;;;;;5067180;28;20024;-67
2024/03/13 00:17:04;;;;;;;5.60;3.60;;;10.20;93.30;;;;;;5071825;28;20024;-66
2024/03/13 00:19:30;;;;;;;6.50;3.95;;;10.20;93.30;;;;;;5067223;28;20033;-65
2024/03/13 00:21:56;;;;;;;6.13;3.95;;;10.20;93.30;;;;;;5069533;28;20032;-67
2024/03/13 00:24:24;;;;;;;5.70;3.90;;;10.20;93.30;;;;;;5069248;28;20036;-67
2024/03/13 00:26:56;;;;;;;5.82;3.80;;;10.20;93.30;;;;;;5066498;28;20020;-66
2024/03/13 00:29:27;;;;;;;5.50;3.50;;;10.20;93.30;;;;;;5068585;28;20476;-66
2024/03/13 00:31:53;;;;;;;5.88;3.55;;;10.20;93.30;;;;;;5067243;28;20016;-65
2024/03/13 00:34:20;;;;;;;7.65;5.00;;;10.20;93.30;;;;;;5069972;28;20104;-67
2024/03/13 00:36:46;;;;;;;5.70;3.45;;;10.20;93.30;;;;;;5069812;28;20017;-66
2024/03/13 00:39:12;;;;;;;6.35;4.05;;;10.20;93.40;;;;;;5067653;28;20104;-66
2024/03/13 00:41:39;;;;;;;5.18;3.33;;;10.20;93.40;;;;;;5069118;28;20112;-66
2024/03/13 00:44:05;;;;;;;5.10;3.15;;;10.30;93.40;;;;;;5075147;28;20028;-67
2024/03/13 00:46:31;;;;;;;5.93;3.88;;;10.40;93.40;;;;;;5102280;28;20040;-66
2024/03/13 00:48:57;;;;;;;5.72;3.88;;;10.30;93.40;;;;;;5065482;28;20567;-66
2024/03/13 00:51:23;;;;;;;4.43;2.90;;;10.30;93.40;;;;;;5065619;28;20032;-67
2024/03/13 00:53:48;;;;;;;4.70;3.20;;;10.30;93.30;;;;;;5067642;28;20025;-67
2024/03/13 00:56:15;;;;;;;4.07;2.60;;;10.30;93.30;;;;;;5071321;28;20789;-65
2024/03/13 00:58:42;;;;;;;4.13;2.47;;;10.30;93.40;;;;;;5066594;28;20137;-65
2024/03/13 01:01:11;;;;;;;2.72;1.98;;;10.40;93.40;;;;;;5068263;28;20031;-66
2024/03/13 01:03:37;;;;;;;4.05;2.55;;;10.40;93.40;;;;;;5071522;28;20032;-68
2024/03/13 01:06:05;;;;;;;4.82;2.70;;;10.40;93.40;;;;;;5069016;28;20017;-67
2024/03/13 01:08:34;;;;;;;3.88;2.50;;;10.40;93.40;;;;;;5067290;28;20059;-65
2024/03/13 01:11:00;;;;;;;3.28;2.10;;;10.40;93.40;;;;;;5064641;28;20043;-67
2024/03/13 01:13:27;;;;;;;5.20;3.50;;;10.40;93.40;;;;;;5071060;28;20063;-66
2024/03/13 01:15:52;;;;;;;3.75;2.58;;;10.40;93.50;;;;;;5070340;28;20019;-68
2024/03/13 01:18:19;;;;;;;5.85;3.50;;;10.40;93.50;;;;;;5069303;28;20032;-67
2024/03/13 01:20:48;;;;;;;6.03;3.78;;;10.40;93.50;;;;;;5070202;28;20056;-68
2024/03/13 01:23:13;;;;;;;4.85;3.15;;;10.40;93.60;;;;;;5074688;28;20085;-64
2024/03/13 01:25:44;;;;;;;3.30;2.15;;;10.40;93.60;;;;;;5068373;28;20116;-67
2024/03/13 01:28:10;;;;;;;5.17;3.60;;;10.40;93.50;;;;;;5067911;28;20052;-66
2024/03/13 01:30:35;;;;;;;6.15;4.00;;;10.40;93.50;;;;;;5067241;28;20548;-66
2024/03/13 01:33:01;;;;;;;5.97;3.92;;;10.40;93.60;;;;;;5066453;28;20017;-67
2024/03/13 01:35:27;;;;;;;4.70;3.17;;;10.40;93.70;;;;;;5069183;28;20032;-66
2024/03/13 01:37:58;;;;;;;4.05;2.60;;;10.40;93.70;;;;;;5065515;28;20048;-65
2024/03/13 01:40:28;;;;;;;;;;;10.40;93.70;;;;;;5069530;28;20100;-64
2024/03/13 01:57:02;;;;;;;4.15;2.97;;;10.30;94.20;;;;;;5063948;28;20095;-65
2024/03/13 02:02:27;;;;;;;4.55;3.10;;;10.40;94.10;;;;;;5060856;28;20025;-62
2024/03/13 02:04:54;;;;;;;4.00;2.60;;;10.40;94.00;;;;;;5063506;28;20059;-66
2024/03/13 02:07:22;;;;;;;3.33;2.38;;;10.40;94.00;;;;;;5067895;28;20033;-66
2024/03/13 02:09:50;;;;;;;3.80;2.80;;;10.40;94.00;;;;;;5066920;28;20067;-66
2024/03/13 02:12:15;;;;;;;7.70;5.55;;;10.40;94.10;;;;;;5070380;28;20020;-67
2024/03/13 02:14:41;;;;;;;6.07;3.97;;;10.30;94.30;;;;;;5077042;28;20027;-66
2024/03/13 02:17:06;;;;;;;5.32;3.60;;;10.30;94.50;;;;;;5075278;28;20016;-65
2024/03/13 02:19:39;;;;;;;6.00;3.70;;;10.30;94.50;;;;;;5068650;28;20608;-66
2024/03/13 02:22:06;;;;;;;6.97;4.50;;;10.30;94.50;;;;;;5068346;28;20032;-66
2024/03/13 02:24:35;;;;;;;6.40;4.43;;;10.30;94.60;;;;;;5068550;28;20024;-67
2024/03/13 02:27:00;;;;;;;5.85;3.88;;;10.30;94.60;;;;;;5074257;28;20028;-66
2024/03/13 02:29:27;;;;;;;4.97;3.45;;;10.30;94.70;;;;;;5068294;28;20033;-66
2024/03/13 02:31:52;;;;;;;6.07;4.00;;;10.30;94.70;;;;;;5069476;28;20016;-66
2024/03/13 02:34:20;;;;;;;4.40;3.03;;;10.30;94.70;;;;;;5074018;28;20081;-66
2024/03/13 02:36:46;;;;;;;4.97;3.25;;;10.40;94.80;;;;;;5064748;28;20471;-66
2024/03/13 02:39:17;;;;;;;7.40;3.45;;;10.40;94.70;;;;;;5072414;28;20036;-67
2024/03/13 02:41:43;;;;;;;9.13;4.13;;;10.40;94.70;;;;;;5068754;28;20040;-63
2024/03/13 02:44:09;;;;;;;6.97;3.70;;;10.40;94.70;;;;;;5073311;28;20030;-64
2024/03/13 02:46:34;;;;;;;4.97;3.40;;;10.40;94.80;;;;;;5066756;28;20046;-66
2024/03/13 02:49:00;;;;;;;4.30;2.92;;;10.40;94.80;;;;;;5071524;28;20068;-66
2024/03/13 02:51:25;;;;;;;5.30;3.60;;;10.40;94.80;;;;;;5068653;28;20028;-65
2024/03/13 02:53:51;;;;;;;9.63;4.30;;;10.50;94.80;;;;;;5073930;28;20088;-64
2024/03/13 02:56:16;;;;;;;5.70;3.60;;;10.50;94.80;;;;;;5068817;28;20020;-67
2024/03/13 02:58:44;;;;;;;7.07;3.90;;;10.40;94.80;;;;;;5071571;28;20028;-65
2024/03/13 03:01:12;;;;;;;8.95;4.00;;;10.40;94.90;;;;;;5072966;28;20512;-65
2024/03/13 03:03:39;;;;;;;7.07;4.68;;;10.40;95.00;;;;;;5066872;28;20074;-65
2024/03/13 03:06:08;;;;;;;4.97;3.30;;;10.40;95.10;;;;;;5072046;28;20032;-66
2024/03/13 03:08:37;;;;;;;4.60;2.60;;;10.40;95.20;;;;;;5073918;28;20406;-66
2024/03/13 03:11:03;;;;;;;3.42;2.40;;;10.50;95.10;;;;;;5079283;28;20040;-66
2024/03/13 03:13:33;;;;;;;5.15;2.65;;;10.50;95.00;;;;;;5068669;28;20017;-65
2024/03/13 03:16:01;;;;;;;5.32;3.42;;;10.50;95.00;;;;;;5069474;28;20593;-67
2024/03/13 03:18:27;;;;;;;3.30;2.33;;;10.50;95.00;;;;;;5070384;28;20040;-66
2024/03/13 03:20:53;;;;;;;6.50;2.08;;;10.50;95.10;;;;;;5072157;28;20028;-64
2024/03/13 03:23:19;;;;;;;3.40;2.30;;;10.60;95.10;;;;;;5072205;28;20027;-67
2024/03/13 03:25:45;;;;;;;4.75;3.25;;;10.60;95.10;;;;;;5073845;28;20024;-66
2024/03/13 03:28:14;;;;;;;5.90;3.33;;;10.60;95.10;;;;;;5071953;28;20036;-66
2024/03/13 03:30:43;;;;;;;3.75;2.60;;;10.60;95.20;;;;;;5067080;28;20024;-66
2024/03/13 03:33:18;;;;;;;10.05;3.10;;;10.60;95.20;;;;;;5071731;28;20406;-67
2024/03/13 03:35:44;;;;;;;4.85;3.17;;;10.60;95.20;;;;;;5076466;28;20023;-65
2024/03/13 03:38:09;;;;;;;13.52;3.72;;;10.60;95.30;;;;;;5068959;28;20098;-66
2024/03/13 03:40:35;;;;;;;4.70;3.03;;;10.50;95.30;;;;;;5071493;28;20051;-66
2024/03/13 03:43:01;;;;;;;7.47;3.30;;;10.50;95.40;;;;;;5068064;28;20028;-66
2024/03/13 03:45:28;;;;;;;4.55;3.00;;;10.60;95.40;;;;;;5071735;28;20082;-66
2024/03/13 03:47:54;;;;;;;9.15;3.60;;;10.60;95.40;;;;;;5075069;28;20032;-67
2024/03/13 03:50:20;;;;;;;7.85;3.33;;;10.60;95.50;;;;;;5071998;28;20039;-66
2024/03/13 03:52:47;;;;;;;5.43;3.60;;;10.60;95.50;;;;;;5079965;28;20024;-66
2024/03/13 03:55:17;;;;;;;8.18;3.55;;;10.60;95.80;;;;;;5072602;28;20013;-65
2024/03/13 03:57:43;;;;;;;8.40;3.00;;;10.60;95.60;;;;;;5080305;28;20025;-65
2024/03/13 04:00:11;;;;;;;5.03;2.88;;;10.60;95.60;;;;;;5070366;28;20020;-65
2024/03/13 04:02:37;;;;;;;5.00;3.05;;;10.70;95.60;;;;;;5071459;28;20033;-65
2024/03/13 04:05:06;;;;;;;5.03;2.58;;;10.70;95.60;;;;;;5077815;28;20039;-64
2024/03/13 04:07:32;;;;;;;6.88;2.40;;;10.70;95.60;;;;;;5071972;28;20029;-66
2024/03/13 04:09:58;;;;;;;7.88;3.75;;;10.70;95.50;;;;;;5072149;28;20036;-66
2024/03/13 04:12:23;;;;;;;4.90;3.50;;;10.70;95.60;;;;;;5082673;28;20063;-67
2024/03/13 04:14:49;;;;;;;5.40;3.58;;;10.70;95.70;;;;;;5079402;28;20024;-66
2024/03/13 04:17:15;;;;;;;5.18;3.08;;;10.70;95.70;;;;;;5075695;28;20422;-66
2024/03/13 04:19:42;;;;;;;3.67;2.50;;;10.70;95.70;;;;;;5069615;28;20047;-66
2024/03/13 04:22:08;;;;;;;4.60;3.22;;;10.80;95.80;;;;;;5070501;28;20026;-65
2024/03/13 04:24:34;;;;;;;3.47;2.40;;;10.70;95.80;;;;;;5071024;28;20436;-65
2024/03/13 04:26:59;;;;;;;3.53;2.50;;;10.80;95.80;;;;;;5070878;28;20154;-67
2024/03/13 04:29:25;;;;;;;3.13;2.00;;;10.80;95.70;;;;;;5076972;28;20058;-67
2024/03/13 04:31:51;;;;;;;2.58;1.90;;;10.80;95.80;;;;;;5071040;28;20102;-65
2024/03/13 04:34:16;;;;;;;2.35;1.73;;;10.90;95.80;;;;;;5074888;28;20399;-63
2024/03/13 04:36:42;;;;;;;3.00;2.10;;;10.90;95.70;;;;;;5068448;28;20126;-66
2024/03/13 04:39:08;;;;;;;2.80;1.73;;;10.90;95.70;;;;;;5074333;28;20039;-65
2024/03/13 04:41:34;;;;;;;2.35;1.83;;;11.00;95.70;;;;;;5071046;28;20029;-64
2024/03/13 04:44:02;;;;;;;4.03;2.22;;;11.00;95.70;;;;;;5082268;28;20036;-64
2024/03/13 04:46:27;;;;;;;4.22;2.00;;;11.00;95.70;;;;;;5070997;28;20031;-66
2024/03/13 04:48:53;;;;;;;3.05;2.00;;;11.00;95.70;;;;;;5070973;28;20025;-65
2024/03/13 04:51:18;;;;;;;1.92;1.50;;;11.00;95.70;;;;;;5075676;28;20024;-66
2024/03/13 04:53:44;;;;;;;2.50;1.73;;;11.10;95.60;;;;;;5079207;28;20017;-66
2024/03/13 04:56:11;;;;;;;2.30;1.77;;;11.10;95.60;;;;;;5070034;28;20024;-66
2024/03/13 04:58:37;;;;;;;3.00;1.98;;;11.10;95.60;;;;;;5069095;28;20123;-65
2024/03/13 05:01:03;;;;;;;2.75;1.75;;;11.10;95.60;;;;;;5075637;28;20095;-66
2024/03/13 05:03:30;;;;;;;2.80;2.05;;;11.20;95.60;;;;;;5066042;28;20430;-66
2024/03/13 05:05:56;;;;;;;4.10;2.38;;;11.20;95.60;;;;;;5071898;28;20027;-65
2024/03/13 05:08:22;;;;;;;2.67;1.88;;;11.30;95.60;;;;;;5073581;28;20487;-64
2024/03/13 05:10:47;;;;;;;3.25;2.00;;;11.20;95.60;;;;;;5077828;28;20017;-66
2024/03/13 05:13:15;;;;;;;2.45;1.85;;;11.30;95.60;;;;;;5071441;28;20024;-65
2024/03/13 05:15:41;;;;;;;3.40;1.80;;;11.20;95.60;;;;;;5073121;28;20502;-66
2024/03/13 05:18:07;;;;;;;2.55;1.27;;;11.30;95.60;;;;;;5076464;28;20158;-65
2024/03/13 05:20:33;;;;;;;2.97;2.10;;;11.30;95.60;;;;;;5067300;28;20029;-63
2024/03/13 05:23:01;;;;;;;2.97;2.10;;;11.30;95.70;;;;;;5071381;28;20111;-66
2024/03/13 05:25:27;;;;;;;2.78;1.95;;;11.30;95.70;;;;;;5070069;28;20162;-66
2024/03/13 05:27:53;;;;;;;2.85;2.10;;;11.30;95.70;;;;;;5072933;28;20115;-67
2024/03/13 05:30:18;;;;;;;3.28;2.03;;;11.40;95.80;;;;;;5102191;28;20035;-66
2024/03/13 05:32:44;;;;;;;4.13;2.30;;;11.40;95.70;;;;;;5068982;28;20025;-66
2024/03/13 05:35:12;;;;;;;5.35;3.15;;;11.40;95.70;;;;;;5079175;28;20068;-65
2024/03/13 05:37:39;;;;;;;4.53;2.58;;;11.40;95.70;;;;;;5070754;28;20028;-66
2024/03/13 05:40:12;;;;;;;3.35;2.10;;;11.40;95.70;;;;;;5066574;28;20020;-65
2024/03/13 05:42:41;;;;;;;4.00;2.50;;;11.40;95.80;;;;;;5069297;28;20044;-65
2024/03/13 05:45:11;;;;;;;3.33;2.40;;;11.40;95.90;;;;;;5073347;28;20028;-66
2024/03/13 05:47:37;;;;;;;4.63;2.80;;;11.40;95.90;;;;;;5068228;28;20158;-65
2024/03/13 05:50:03;;;;;;;3.00;2.00;;;11.40;95.90;;;;;;5075565;28;20019;-65
2024/03/13 05:52:28;;;;;;;4.20;2.35;;;11.40;96.00;;;;;;5072018;28;20024;-65
2024/03/13 05:54:54;;;;;;;4.32;2.70;;;11.50;95.90;;;;;;5067711;28;20027;-66
2024/03/13 05:57:22;;;;;;;2.95;1.85;;;11.40;95.90;;;;;;5072082;28;20047;-67
2024/03/13 05:59:49;;;;;;;3.03;2.00;;;11.50;96.00;;;;;;5077260;28;20391;-67
2024/03/13 06:02:15;;;;;;;3.28;2.13;;;11.50;96.00;;;;;;5069057;28;20067;-64
2024/03/13 06:04:40;;;;;;;2.72;1.80;;;11.60;95.90;;;;;;5069375;28;20067;-67
2024/03/13 06:07:06;;;;;;;2.97;1.98;;;11.50;95.90;;;;;;5072529;28;20024;-67
2024/03/13 06:09:31;;;;;;;2.90;1.70;;;11.60;95.90;;;;;;5073977;28;20082;-67
2024/03/13 06:11:57;;;;;;;4.35;2.30;;;11.60;95.90;;;;;;5067582;28;20016;-67
2024/03/13 06:14:22;;;;;;;3.15;1.75;;;11.60;95.90;;;;;;5074060;28;20032;-67
2024/03/13 06:16:48;;;;;;;2.67;1.85;;;11.60;95.90;;;;;;5071788;28;20084;-67
2024/03/13 06:19:13;;;;;;;3.80;2.17;;;11.70;95.90;;;;;;5074275;28;20028;-67
2024/03/13 06:21:39;;;;;;;2.85;1.90;;;11.60;96.00;;;;;;5069102;28;20479;-66
2024/03/13 06:24:06;;;;;;;2.67;1.77;;;11.70;96.00;;;;;;5069582;28;20025;-66
2024/03/13 06:26:31;;;;;;;4.07;2.22;;;11.70;96.00;;;;;;5080736;28;20387;-66
2024/03/13 06:31:44;;;;;;;2.08;1.63;;;11.70;96.00;;;;;;5068272;28;20039;-65
2024/03/13 06:34:10;;;;;;;2.05;1.67;;;11.70;96.10;;;;;;5071777;28;20506;-64
2024/03/13 06:36:36;;;;;;;2.33;1.60;;;11.70;96.00;;;;;;5068388;28;20092;-66
2024/03/13 06:39:03;;;;;;;2.05;1.40;;;11.70;96.30;;;;;;5076489;28;20400;-66
2024/03/13 06:41:29;;;;;;;2.40;1.52;;;11.70;96.10;;;;;;5075045;28;20210;-66
2024/03/13 06:43:55;;;;;;;2.00;1.60;;;11.80;96.10;;;;;;5067333;28;20558;-65
2024/03/13 06:46:20;;;;;;;2.42;1.60;;;11.80;96.10;;;;;;5075090;28;20098;-66
2024/03/13 06:48:46;;;;;;;2.50;1.30;;;11.80;96.10;;;;;;5073339;28;20147;-65
2024/03/13 06:51:13;;;;;;;1.90;1.38;;;11.80;96.10;;;;;;5072569;28;20029;-66
2024/03/13 06:53:38;;;;;;;1.52;1.38;;;11.80;96.10;;;;;;5074403;28;20576;-66
2024/03/13 06:56:04;;;;;;;1.70;1.40;;;11.80;96.10;;;;;;5076374;28;20095;-66
2024/03/13 06:58:30;;;;;;;1.98;1.42;;;11.80;96.10;;;;;;5068299;28;20031;-64
2024/03/13 07:00:57;;;;;;;2.15;1.52;;;11.90;96.10;;;;;;5073126;28;20436;-65
2024/03/13 07:03:28;;;;;;;1.98;1.35;;;11.90;96.10;;;;;;5070503;28;20050;-66
2024/03/13 07:05:54;;;;;;;2.40;1.23;;;11.80;96.10;;;;;;5065051;28;20024;-63
2024/03/13 07:08:20;;;;;;;2.08;1.27;;;11.90;96.20;;;;;;5065729;28;20039;-66
2024/03/13 07:10:48;;;;;;;1.00;0.90;;;11.90;96.20;;;;;;5066013;28;20028;-67
2024/03/13 07:13:14;;;;;;;1.60;1.25;;;11.90;96.20;;;;;;5063643;28;20021;-64
2024/03/13 07:15:42;;;;;;;1.80;1.40;;;11.80;96.20;;;;;;5063060;28;20037;-66
2024/03/13 07:18:07;;;;;;;2.50;1.50;;;11.80;96.30;;;;;;5067215;28;20028;-66
2024/03/13 07:20:33;;;;;;;3.38;2.20;;;11.90;96.30;;;;;;5063220;28;20033;-66
2024/03/13 07:22:59;;;;;;;2.95;1.80;;;11.80;96.30;;;;;;5069798;28;20047;-66
2024/03/13 07:25:25;;;;;;;1.90;1.48;;;11.80;96.40;;;;;;5067174;28;20059;-63
2024/03/13 07:27:51;;;;;;;2.45;1.77;;;11.80;96.50;;;;;;5071296;28;20533;-66
2024/03/13 07:30:16;;;;;;;3.60;2.10;;;11.80;96.60;;;;;;5071317;28;20386;-66
2024/03/13 07:32:42;;;;;;;3.08;2.10;;;11.80;96.60;;;;;;5069286;28;20036;-67
2024/03/13 07:35:10;;;;;;;2.42;1.95;;;11.80;96.60;;;;;;5072697;28;20134;-66
2024/03/13 07:37:37;;;;;;;2.05;1.60;;;11.90;96.60;;;;;;5070214;28;20008;-68
2024/03/13 07:40:03;;;;;;;2.10;1.70;;;11.90;96.50;;;;;;5076948;28;20038;-67
2024/03/13 07:42:28;;;;;;;2.65;1.98;;;11.90;96.50;;;;;;5078262;28;20108;-64
2024/03/13 07:44:54;;;;;;;2.30;1.75;;;11.90;96.50;;;;;;5078717;28;20016;-68
2024/03/13 07:47:21;;;;;;;2.97;2.10;;;11.90;96.50;;;;;;5071356;28;20020;-65
2024/03/13 07:49:47;;;;;;;2.83;1.55;;;11.90;96.50;;;;;;5073117;28;20039;-65
2024/03/13 07:52:13;;;;;;;1.70;1.42;;;12.00;96.50;;;;;;5071403;28;20012;-66
2024/03/13 07:54:39;;;;;;;1.65;1.35;;;12.00;96.50;;;;;;5075219;28;20051;-65
2024/03/13 07:57:05;;;;;;;2.67;1.88;;;12.00;96.50;;;;;;5079898;28;20073;-65
2024/03/13 07:59:31;;;;;;;2.33;1.65;;;12.00;96.60;;;;;;5075421;28;20135;-66
2024/03/13 08:01:56;;;;;;;3.33;2.22;;;12.00;96.60;;;;;;5079356;28;20059;-66
2024/03/13 08:04:24;;;;;;;3.35;2.15;;;12.00;96.60;;;;;;5085157;28;20031;-67
2024/03/13 08:06:53;;;;;;;2.20;1.70;;;12.10;96.70;;;;;;5072316;28;20111;-65
2024/03/13 08:09:19;;;;;;;2.85;2.00;;;12.10;96.60;;;;;;5077517;28;20024;-64
2024/03/13 08:11:45;;;;;;;2.53;1.67;;;12.10;96.50;;;;;;5072932;28;20020;-66
2024/03/13 08:14:10;;;;;;;2.47;1.80;;;12.10;96.50;;;;;;5083650;28;20488;-66
2024/03/13 08:16:36;;;;;;;4.05;2.50;;;12.20;96.50;;;;;;5073567;28;20027;-66
2024/03/13 08:19:01;;;;;;;3.38;2.10;;;12.10;96.50;;;;;;5079187;28;20035;-65
2024/03/13 08:21:27;;;;;;;3.00;2.00;;;12.20;96.60;;;;;;5071659;28;20051;-67
2024/03/13 08:23:52;;;;;;;2.78;2.10;;;12.10;96.90;;;;;;5084572;28;20445;-66
2024/03/13 08:26:18;;;;;;;4.03;2.20;;;12.10;96.70;;;;;;5072137;28;20067;-64
2024/03/13 08:28:43;;;;;;;3.83;2.20;;;12.10;96.80;;;;;;5067066;28;20110;-66
2024/03/13 08:31:10;;;;;;;3.78;2.25;;;12.20;96.80;;;;;;5079964;28;20028;-67
2024/03/13 08:33:36;;;;;;;3.35;2.42;;;12.20;96.80;;;;;;5072431;28;20174;-66
2024/03/13 08:36:02;;;;;;;3.53;2.40;;;12.20;96.90;;;;;;5075083;28;20111;-67
2024/03/13 08:38:29;;;;;;;2.17;1.77;;;12.20;96.80;;;;;;5075692;28;20020;-66
2024/03/13 08:40:55;;;;;;;3.95;1.83;;;12.20;96.80;;;;;;5066112;28;20028;-67
2024/03/13 08:43:22;;;;;;;3.17;2.25;;;12.20;96.80;;;;;;5069810;28;20021;-68
2024/03/13 08:45:47;;;;;;;2.97;2.00;;;12.30;96.80;;;;;;5065942;28;20024;-67
2024/03/13 08:48:13;;;;;;;5.50;3.50;;;12.30;96.70;;;;;;5067796;28;20034;-65
2024/03/13 08:50:40;;;;;;;3.63;2.75;;;12.30;96.70;;;;;;5074774;28;20153;-68
2024/03/13 08:53:06;;;;;;;4.25;2.55;;;12.30;96.70;;;;;;5080520;28;20028;-68
2024/03/13 08:55:34;;;;;;;4.15;2.83;;;12.30;96.80;;;;;;5075600;28;20059;-67
2024/03/13 08:58:03;;;;;;;6.15;3.40;;;12.30;96.90;;;;;;5069864;28;20039;-66
2024/03/13 09:00:29;;;;;;;3.70;2.50;;;12.30;97.00;;;;;;5083302;28;20461;-68
2024/03/13 09:02:57;;;;;;;3.20;2.17;;;12.30;97.00;;;;;;5068144;28;20166;-68
2024/03/13 09:05:23;;;;;;;4.80;2.65;;;12.30;97.00;;;;;;5062887;28;20383;-66
2024/03/13 09:07:49;;;;;;;3.75;2.25;;;12.30;97.00;;;;;;5055317;28;20028;-67
2024/03/13 09:10:16;;;;;;;3.67;2.30;;;12.30;97.00;;;;;;5070756;28;20034;-66
2024/03/13 09:12:42;;;;;;;3.03;2.30;;;12.30;97.00;;;;;;5056325;28;20021;-69
2024/03/13 09:15:09;;;;;;;3.55;2.20;;;12.30;97.00;;;;;;5055845;28;20040;-64
2024/03/13 09:17:35;;;;;;;3.63;2.30;;;12.30;97.10;;;;;;5052184;28;239167;-67
2024/03/13 09:20:01;;;;;;;3.33;2.40;;;12.30;97.10;;;;;;5060037;28;20040;-67
2024/03/13 09:22:27;;;;;;;4.95;2.53;;;12.30;97.20;;;;;;5056974;28;20037;-64
2024/03/13 09:24:53;;;;;;;2.78;1.80;;;12.30;97.50;;;;;;5062852;28;20744;-66
2024/03/13 09:27:19;;;;;;;3.95;2.42;;;12.30;97.30;;;;;;5074187;28;20106;-66
2024/03/13 09:29:45;;;;;;;3.97;2.10;;;12.30;97.30;;;;;;5072890;28;20106;-65
2024/03/13 09:32:10;;;;;;;2.92;2.30;;;12.40;97.30;;;;;;5077615;28;20021;-66
2024/03/13 09:34:36;;;;;;;3.92;2.30;;;12.40;97.30;;;;;;5074897;28;20035;-67
2024/03/13 09:37:04;;;;;;;4.03;2.50;;;12.40;97.40;;;;;;5074009;28;20716;-68
2024/03/13 09:39:33;;;;;;;3.75;1.90;;;12.40;97.40;;;;;;5073990;28;20364;-67
2024/03/13 09:41:59;;;;;;;1.67;1.40;;;12.40;97.40;;;;;;5072415;28;20690;-67
2024/03/13 09:44:29;;;;;;;2.03;1.50;;;12.40;97.40;;;;;;5067448;28;20021;-66
2024/03/13 09:46:57;;;;;;;2.53;1.60;;;12.40;97.40;;;;;;5068603;28;20047;-68
2024/03/13 09:49:25;;;;;;;2.10;1.50;;;12.50;97.50;;;;;;5065511;28;20024;-66
2024/03/13 09:51:51;;;;;;;2.22;1.60;;;12.50;97.80;;;;;;5073399;28;20054;-68
2024/03/13 09:54:19;;;;;;;1.55;1.00;;;12.60;97.40;;;;;;5066179;28;20032;-68
2024/03/13 09:56:46;;;;;;;1.75;1.00;;;12.70;97.30;;;;;;5064109;28;20056;-68
2024/03/13 09:59:12;;;;;;;2.35;1.65;;;12.70;97.20;;;;;;5066758;28;20025;-67
2024/03/13 10:01:51;;;;;;;1.92;1.50;;;12.70;97.20;;;;;;5066903;28;20039;-68
2024/03/13 10:04:26;;;;;;;3.50;1.95;;;12.70;97.30;;;;;;5064240;28;20132;-68
2024/03/13 10:06:58;;;;;;;4.00;1.75;;;12.70;97.20;;;;;;5066059;28;20032;-68
2024/03/13 10:09:30;;;;;;;2.70;1.77;;;12.70;97.30;;;;;;5066471;28;20082;-68
2024/03/13 10:11:59;;;;;;;3.95;2.10;;;12.70;97.30;;;;;;5066347;28;20100;-68
2024/03/13 10:14:25;;;;;;;2.75;1.90;;;12.60;97.30;;;;;;5068250;28;20479;-66
2024/03/13 10:16:53;;;;;;;3.42;2.10;;;12.70;97.40;;;;;;5066730;28;20020;-67
2024/03/13 10:19:22;;;;;;;2.80;1.70;;;12.70;97.30;;;;;;5061903;28;20036;-68
2024/03/13 10:21:49;;;;;;;6.32;3.20;;;12.70;97.40;;;;;;5067754;28;20031;-68
2024/03/13 10:24:18;;;;;;;3.58;2.33;;;12.70;97.40;;;;;;5071171;28;20020;-68
2024/03/13 10:26:45;;;;;;;6.47;3.70;;;12.70;97.40;;;;;;5066877;28;20086;-67
2024/03/13 10:29:11;;;;;;;5.30;2.78;;;12.70;97.40;;;;;;5069347;28;20028;-69
2024/03/13 10:31:38;;;;;;;3.90;2.55;;;12.70;97.40;;;;;;5058596;28;20024;-65
2024/03/13 10:34:08;;;;;;;5.45;2.78;;;12.70;97.40;;;;;;5065588;28;20139;-68
2024/03/13 10:36:34;;;;;;;4.85;2.80;;;12.70;97.40;;;;;;5068142;28;20025;-65
2024/03/13 10:39:05;;;;;;;5.13;2.70;;;12.70;97.40;;;;;;5071037;28;20021;-67
2024/03/13 10:41:30;;;;;;;3.15;2.08;;;12.70;97.40;;;;;;5072533;28;20021;-67
2024/03/13 10:43:56;;;;;;;5.65;3.15;;;12.70;97.40;;;;;;5069024;28;20048;-68
2024/03/13 10:46:22;;;;;;;6.03;2.60;;;12.70;97.40;;;;;;5072341;28;20117;-69
2024/03/13 10:48:49;;;;;;;7.45;3.72;;;12.70;97.50;;;;;;5064825;28;20089;-68
2024/03/13 10:51:15;;;;;;;6.13;3.42;;;12.70;97.50;;;;;;5066590;28;20021;-69
2024/03/13 10:53:43;;;;;;;9.63;4.43;;;12.70;97.40;;;;;;5099008;28;20034;-68
2024/03/13 10:56:16;;;;;;;7.40;4.00;;;12.70;97.50;;;;;;5066141;28;20099;-66
2024/03/13 10:58:47;;;;;;;8.27;4.50;;;12.70;97.50;;;;;;5066227;28;20028;-67
2024/03/13 11:01:16;;;;;;;9.30;5.15;;;12.60;97.60;;;;;;5066794;28;20028;-66
2024/03/13 11:03:46;;;;;;;9.13;4.15;;;12.60;97.60;;;;;;5071552;28;20059;-68
2024/03/13 11:06:14;;;;;;;7.47;4.03;;;12.60;97.70;;;;;;5081493;28;20058;-67
2024/03/13 11:08:43;;;;;;;6.30;3.17;;;12.70;97.70;;;;;;5067509;28;20094;-67
2024/03/13 11:11:12;;;;;;;7.95;3.55;;;12.70;97.70;;;;;;5069860;28;20127;-68
2024/03/13 11:13:42;;;;;;;5.88;3.28;;;12.80;97.60;;;;;;5074191;28;20122;-66
2024/03/13 11:16:10;;;;;;;6.28;3.00;;;12.80;97.50;;;;;;5061891;28;20024;-66
2024/03/13 11:18:42;;;;;;;6.15;3.42;;;12.90;97.50;;;;;;5067803;28;20043;-68
2024/03/13 11:21:12;;;;;;;8.75;4.32;;;12.90;97.70;;;;;;5076429;28;20065;-69
2024/03/13 11:23:45;;;;;;;6.88;4.40;;;13.00;97.40;;;;;;5074378;28;20020;-69
2024/03/13 11:26:12;;;;;;;7.63;3.92;;;13.10;97.30;;;;;;5062268;28;20035;-68
2024/03/13 11:28:39;;;;;;;8.48;4.35;;;13.10;97.10;;;;;;5078614;28;20111;-68
2024/03/13 11:31:05;;;;;;;8.30;4.85;;;13.10;97.10;;;;;;5074717;28;20021;-68
2024/03/13 11:33:31;;;;;;;8.75;4.50;;;13.10;97.10;;;;;;5075028;28;20378;-67
2024/03/13 11:35:58;;;;;;;11.18;5.32;;;13.00;97.10;;;;;;5070321;28;20105;-69
2024/03/13 11:38:24;;;;;;;8.80;5.72;;;13.00;97.10;;;;;;5074809;28;20047;-68
2024/03/13 11:40:52;;;;;;;6.97;4.13;;;13.00;97.20;;;;;;5068238;28;20020;-70
2024/03/13 11:43:25;;;;;;;8.48;4.68;;;13.00;97.30;;;;;;5068173;28;20364;-67
2024/03/13 11:45:50;;;;;;;10.57;5.43;;;13.00;97.20;;;;;;5074829;28;20103;-69
2024/03/13 11:48:18;;;;;;;10.85;5.68;;;13.10;97.10;;;;;;5073009;28;20112;-68
2024/03/13 11:51:08;;;;;;;6.78;4.50;;;13.00;97.10;;;;;;5068734;28;20024;-66
2024/03/13 11:53:41;;;;;;;6.55;3.63;;;13.10;97.10;;;;;;5079582;28;20016;-65
2024/03/13 11:56:18;;;;;;;5.60;3.47;;;13.10;97.10;;;;;;5062154;28;20052;-67
2024/03/13 11:58:46;;;;;;;8.30;4.65;;;13.10;97.00;;;;;;5069509;28;20029;-67
2024/03/13 12:01:14;;;;;;;8.75;5.60;;;13.00;97.00;;;;;;5073759;28;20048;-67
2024/03/13 12:03:42;;;;;;;8.93;5.18;;;13.00;97.00;;;;;;5073114;28;20095;-66
2024/03/13 12:06:29;;;;;;;7.63;4.70;;;13.00;97.00;;;;;;5070411;28;20016;-65
2024/03/13 12:08:56;;;;;;;7.97;5.20;;;13.00;97.10;;;;;;5065526;28;20032;-68
2024/03/13 12:11:21;;;;;;;6.57;3.90;;;13.00;97.00;;;;;;5068454;28;20020;-68
2024/03/13 12:13:48;;;;;;;5.53;3.05;;;13.10;97.10;;;;;;5080552;28;20363;-69
2024/03/13 12:16:20;;;;;;;6.72;3.63;;;13.10;96.90;;;;;;5080039;28;20374;-64
2024/03/13 12:18:55;;;;;;;7.03;3.90;;;13.10;96.80;;;;;;5067941;28;20494;-68
2024/03/13 12:21:23;;;;;;;7.93;5.07;;;13.20;96.80;;;;;;5072571;28;20082;-67
2024/03/13 12:23:49;;;;;;;7.43;4.72;;;13.10;96.80;;;;;;5073603;28;20055;-66
2024/03/13 12:26:15;;;;;;;8.82;4.88;;;13.10;96.80;;;;;;5071542;28;20483;-67
2024/03/13 12:28:41;;;;;;;8.10;4.68;;;13.10;96.80;;;;;;5070797;28;20034;-67
2024/03/13 12:31:07;;;;;;;8.27;4.97;;;13.20;96.80;;;;;;5072793;28;20103;-66
2024/03/13 12:33:38;;;;;;;6.45;4.03;;;13.20;96.70;;;;;;5080278;28;20490;-67
2024/03/13 12:36:04;;;;;;;6.07;3.40;;;13.30;96.70;;;;;;5070659;28;20082;-67
2024/03/13 12:38:39;;;;;;;7.22;3.90;;;13.40;96.60;;;;;;5073105;28;20546;-67
2024/03/13 12:41:07;;;;;;;9.82;5.75;;;13.50;96.50;;;;;;5078843;28;20545;-68
2024/03/13 12:43:33;;;;;;;9.23;5.85;;;13.50;96.30;;;;;;5077731;28;20677;-67
2024/03/13 12:46:04;;;;;;;8.07;4.97;;;13.40;96.30;;;;;;5075971;28;20062;-67
2024/03/13 12:48:33;;;;;;;8.18;4.78;;;13.40;96.30;;;;;;5069400;28;20074;-66
2024/03/13 12:51:00;;;;;;;7.05;4.75;;;13.40;96.40;;;;;;5067308;28;20028;-67
2024/03/13 12:53:29;;;;;;;7.72;4.55;;;13.40;96.30;;;;;;5069033;28;20028;-68
2024/03/13 12:55:55;;;;;;;5.93;3.78;;;13.40;96.30;;;;;;5069614;28;20506;-66
2024/03/13 12:58:22;;;;;;;6.63;4.50;;;13.50;96.40;;;;;;5070141;28;20028;-67
2024/03/13 13:00:48;;;;;;;7.75;4.50;;;13.50;96.30;;;;;;5068905;28;20410;-68
2024/03/13 13:03:15;;;;;;;6.95;4.40;;;13.60;96.20;;;;;;5069141;28;20096;-68
2024/03/13 13:05:42;;;;;;;7.60;4.53;;;13.60;96.20;;;;;;5068672;28;20074;-66
2024/03/13 13:08:10;;;;;;;7.50;4.70;;;13.50;96.10;;;;;;5069974;28;20020;-68